createdAt,value
2018-11-29T00:00:50.573Z,101628.11
2018-11-29T00:03:50.045Z,101626.32
2018-11-29T00:06:19.533Z,101621.53
2018-11-29T00:08:49.444Z,101612.60
2018-11-29T00:11:19.749Z,101597.30
2018-11-29T00:13:49.315Z,101606.59
2018-11-29T00:16:19.210Z,101608.28
2018-11-29T00:18:48.907Z,101586.77
2018-11-29T00:21:17.870Z,101583.77
2018-11-29T00:23:48.020Z,101580.20
2018-11-29T00:26:17.169Z,101565.27
2018-11-29T00:28:46.695Z,101554.64
2018-11-29T00:31:15.493Z,101559.16
2018-11-29T00:33:45.714Z,101556.16
2018-11-29T00:36:16.451Z,101573.16
2018-11-29T00:38:47.283Z,101546.95
2018-11-29T00:41:18.005Z,101561.42
2018-11-29T00:43:47.929Z,101556.63
2018-11-29T00:46:17.434Z,101560.48
2018-11-29T00:48:48.093Z,101567.05
2018-11-29T00:51:18.313Z,101559.06
2018-11-29T00:53:47.790Z,101562.53
2018-11-29T00:56:18.055Z,101563.38
2018-11-29T00:58:47.059Z,101558.95
2018-11-29T01:01:16.633Z,101548.91
2018-11-29T01:03:46.380Z,101538.77
2018-11-29T01:06:16.911Z,101526.56
2018-11-29T01:08:46.575Z,101526.93
2018-11-29T01:11:15.344Z,101528.24
2018-11-29T01:13:45.669Z,101521.94
2018-11-29T01:16:14.481Z,101510.47
2018-11-29T01:18:44.417Z,101507.73
2018-11-29T01:21:13.245Z,101494.48
2018-11-29T01:23:42.918Z,101501.77
2018-11-29T01:26:11.744Z,101496.41
2018-11-29T01:28:48.072Z,101505.14
2018-11-29T01:31:48.919Z,101511.14
2018-11-29T01:34:18.237Z,101502.67
2018-11-29T01:36:47.385Z,101512.25
2018-11-29T01:39:16.994Z,101510.36
2018-11-29T01:41:46.646Z,101511.57
2018-11-29T01:44:15.461Z,101503.67
2018-11-29T01:46:45.369Z,101517.20
2018-11-29T01:49:14.287Z,101500.09
2018-11-29T01:51:43.858Z,101501.89
2018-11-29T01:54:44.128Z,101513.59
2018-11-29T01:57:12.985Z,101495.64
2018-11-29T01:59:46.767Z,101476.16
2018-11-29T02:02:16.790Z,101498.89
2018-11-29T02:04:45.620Z,101473.53
2018-11-29T02:07:15.425Z,101489.20
2018-11-29T02:09:49.351Z,101496.62
2018-11-29T02:12:19.026Z,101484.17
2018-11-29T02:14:48.222Z,101495.06
2018-11-29T02:17:17.937Z,101497.33
2018-11-29T02:19:48.357Z,101478.81
2018-11-29T02:22:18.708Z,101480.13
2018-11-29T02:24:48.214Z,101475.70
2018-11-29T02:27:17.960Z,101469.60
2018-11-29T02:29:48.641Z,101466.77
2018-11-29T02:32:18.284Z,101458.77
2018-11-29T02:34:47.375Z,101447.77
2018-11-29T02:37:16.464Z,101455.81
2018-11-29T02:39:46.193Z,101450.31
2018-11-29T02:42:16.130Z,101450.94
2018-11-29T02:44:46.702Z,101445.78
2018-11-29T02:47:15.473Z,101440.31
2018-11-29T02:49:44.968Z,101436.73
2018-11-29T02:52:13.704Z,101441.88
2018-11-29T02:54:43.348Z,101439.88
2018-11-29T02:57:12.102Z,101426.95
2018-11-29T02:59:41.489Z,101423.26
2018-11-29T03:02:11.188Z,101424.10
2018-11-29T03:04:39.929Z,101414.67
2018-11-29T03:07:09.771Z,101406.77
2018-11-29T03:09:39.374Z,101400.45
2018-11-29T03:12:08.406Z,101389.45
2018-11-29T03:14:37.802Z,101389.45
2018-11-29T03:17:09.374Z,101386.08
2018-11-29T03:19:38.578Z,101380.97
2018-11-29T03:22:08.791Z,101360.24
2018-11-29T03:24:38.887Z,101357.39
2018-11-29T03:27:08.321Z,101359.91
2018-11-29T03:29:39.251Z,101364.48
2018-11-29T03:32:09.473Z,101355.63
2018-11-29T03:34:39.937Z,101343.20
2018-11-29T03:37:09.178Z,101342.58
2018-11-29T03:39:38.708Z,101348.94
2018-11-29T03:42:23.504Z,101350.14
2018-11-29T03:44:52.512Z,101339.13
2018-11-29T03:47:21.477Z,101336.39
2018-11-29T03:49:53.115Z,101342.02
2018-11-29T03:52:22.254Z,101342.75
2018-11-29T03:54:51.315Z,101325.52
2018-11-29T03:57:20.298Z,101315.68
2018-11-29T03:59:50.439Z,101329.21
2018-11-29T04:02:20.107Z,101315.93
2018-11-29T04:04:49.229Z,101298.92
2018-11-29T04:07:19.307Z,101299.66
2018-11-29T04:09:48.690Z,101305.77
2018-11-29T04:12:18.091Z,101305.17
2018-11-29T04:14:47.026Z,101301.58
2018-11-29T04:17:20.546Z,101283.73
2018-11-29T04:20:12.352Z,101295.36
2018-11-29T04:23:12.439Z,101295.84
2018-11-29T04:25:45.475Z,101297.05
2018-11-29T04:28:15.505Z,101282.44
2018-11-29T04:30:46.222Z,101284.23
2018-11-29T04:33:16.434Z,101271.31
2018-11-29T04:35:45.335Z,101270.58
2018-11-29T04:38:14.325Z,101259.67
2018-11-29T04:40:43.518Z,101270.46
2018-11-29T04:43:12.981Z,101257.53
2018-11-29T04:46:51.307Z,101250.72
2018-11-29T04:49:20.332Z,101233.48
2018-11-29T04:51:51.031Z,101242.08
2018-11-29T04:54:20.025Z,101236.33
2018-11-29T04:56:49.197Z,101235.39
2018-11-29T04:59:19.792Z,101219.34
2018-11-29T05:01:49.708Z,101209.65
2018-11-29T05:04:19.839Z,101217.77
2018-11-29T05:06:49.710Z,101234.89
2018-11-29T05:09:18.797Z,101226.27
2018-11-29T05:11:48.174Z,101206.99
2018-11-29T05:14:18.094Z,101206.52
2018-11-29T05:16:47.219Z,101217.30
2018-11-29T05:19:17.279Z,101211.19
2018-11-29T05:21:46.510Z,101205.69
2018-11-29T05:24:16.485Z,101192.39
2018-11-29T05:26:45.481Z,101202.66
2018-11-29T05:29:15.247Z,101194.40
2018-11-29T05:31:44.295Z,101191.41
2018-11-29T05:34:13.239Z,101202.19
2018-11-29T05:36:43.074Z,101209.84
2018-11-29T05:39:11.941Z,101210.93
2018-11-29T05:41:41.780Z,101204.46
2018-11-29T05:44:11.552Z,101181.94
2018-11-29T05:46:40.344Z,101186.37
2018-11-29T05:49:09.343Z,101173.20
2018-11-29T05:51:40.161Z,101146.13
2018-11-29T05:54:08.991Z,101163.73
2018-11-29T05:56:38.732Z,101148.28
2018-11-29T05:59:08.549Z,101162.66
2018-11-29T06:01:41.028Z,101160.14
2018-11-29T06:04:09.977Z,101153.40
2018-11-29T06:06:39.570Z,101163.83
2018-11-29T06:09:10.687Z,101158.91
2018-11-29T06:11:40.037Z,101165.27
2018-11-29T06:14:09.235Z,101159.03
2018-11-29T06:16:38.764Z,101155.67
2018-11-29T06:19:08.812Z,101164.66
2018-11-29T06:21:37.809Z,101165.37
2018-11-29T06:24:07.642Z,101169.21
2018-11-29T06:26:36.788Z,101165.62
2018-11-29T06:29:06.311Z,101151.92
2018-11-29T06:31:35.286Z,101144.53
2018-11-29T06:34:04.206Z,101148.20
2018-11-29T06:36:33.235Z,101148.56
2018-11-29T06:39:02.158Z,101140.53
2018-11-29T06:41:31.134Z,101148.33
2018-11-29T06:44:00.709Z,101148.56
2018-11-29T06:46:29.954Z,101136.22
2018-11-29T06:48:58.726Z,101136.81
2018-11-29T06:51:28.207Z,101135.97
2018-11-29T06:53:59.817Z,101150.80
2018-11-29T06:56:28.928Z,101161.70
2018-11-29T06:58:58.807Z,101158.71
2018-11-29T07:01:35.196Z,101168.66
2018-11-29T07:04:04.364Z,101165.66
2018-11-29T07:06:34.029Z,101160.14
2018-11-29T07:09:03.027Z,101164.45
2018-11-29T07:11:31.869Z,101161.53
2018-11-29T07:14:00.831Z,101154.70
2018-11-29T07:16:29.886Z,101153.62
2018-11-29T07:18:58.781Z,101157.70
2018-11-29T07:21:58.384Z,101158.89
2018-11-29T07:24:28.198Z,101157.57
2018-11-29T07:26:57.022Z,101157.80
2018-11-29T07:29:26.794Z,101152.05
2018-11-29T07:31:55.623Z,101160.68
2018-11-29T07:34:24.522Z,101156.80
2018-11-29T07:36:53.618Z,101154.44
2018-11-29T07:39:22.369Z,101159.91
2018-11-29T07:41:54.517Z,101150.19
2018-11-29T07:44:23.956Z,101136.75
2018-11-29T07:46:52.808Z,101143.34
2018-11-29T07:49:21.620Z,101130.98
2018-11-29T07:51:51.057Z,101119.59
2018-11-29T07:54:20.324Z,101114.68
2018-11-29T07:56:51.342Z,101113.20
2018-11-29T07:59:20.999Z,101101.56
2018-11-29T08:01:50.554Z,101096.99
2018-11-29T08:04:19.468Z,101082.70
2018-11-29T08:06:49.557Z,101071.80
2018-11-29T08:09:18.603Z,101086.41
2018-11-29T08:11:49.615Z,101089.28
2018-11-29T08:14:18.734Z,101087.61
2018-11-29T08:16:47.687Z,101082.81
2018-11-29T08:19:16.481Z,101077.17
2018-11-29T08:21:45.325Z,101075.27
2018-11-29T08:24:14.972Z,101086.90
2018-11-29T08:26:43.740Z,101088.45
2018-11-29T08:29:13.741Z,101073.77
2018-11-29T08:31:42.556Z,101077.48
2018-11-29T08:34:11.316Z,101087.42
2018-11-29T08:36:40.108Z,101058.22
2018-11-29T08:39:10.330Z,101079.15
2018-11-29T08:41:39.384Z,101070.87
2018-11-29T08:44:09.133Z,101084.89
2018-11-29T08:49:21.280Z,101082.02
2018-11-29T08:51:50.909Z,101076.61
2018-11-29T08:54:20.746Z,101070.02
2018-11-29T08:56:49.566Z,101083.02
2018-11-29T08:59:19.375Z,101070.44
2018-11-29T09:01:49.551Z,101062.00
2018-11-29T09:04:18.489Z,101064.64
2018-11-29T09:06:47.999Z,101047.93
2018-11-29T09:09:17.092Z,101051.77
2018-11-29T09:11:45.899Z,101042.01
2018-11-29T09:14:14.688Z,101048.61
2018-11-29T09:16:43.496Z,101043.84
2018-11-29T09:19:12.374Z,101044.73
2018-11-29T09:21:41.332Z,101039.94
2018-11-29T09:24:11.000Z,101043.16
2018-11-29T09:26:39.788Z,101037.39
2018-11-29T09:29:09.564Z,101042.91
2018-11-29T09:31:38.437Z,101031.38
2018-11-29T09:34:07.335Z,101029.56
2018-11-29T09:36:36.336Z,101027.41
2018-11-29T09:39:07.359Z,101017.72
2018-11-29T09:41:36.417Z,101018.70
2018-11-29T09:44:06.162Z,101009.82
2018-11-29T09:46:34.958Z,101010.88
2018-11-29T09:49:03.983Z,101001.02
2018-11-29T09:51:33.452Z,100997.54
2018-11-29T09:54:03.171Z,100990.23
2018-11-29T09:56:31.943Z,100974.16
2018-11-29T09:59:01.443Z,100976.45
2018-11-29T10:01:31.048Z,100976.88
2018-11-29T10:04:00.189Z,100980.84
2018-11-29T10:06:29.878Z,100989.25
2018-11-29T10:08:58.660Z,100989.25
2018-11-29T10:11:27.402Z,100985.99
2018-11-29T10:13:56.278Z,100987.66
2018-11-29T10:16:25.026Z,100975.13
2018-11-29T10:18:54.268Z,100973.33
2018-11-29T10:21:23.099Z,100963.69
2018-11-29T10:23:52.663Z,100952.81
2018-11-29T10:26:21.416Z,100940.19
2018-11-29T10:28:51.051Z,100940.22
2018-11-29T10:31:19.917Z,100935.83
2018-11-29T10:33:49.564Z,100927.98
2018-11-29T10:36:18.687Z,100926.44
2018-11-29T10:38:48.003Z,100927.70
2018-11-29T10:41:17.252Z,100935.75
2018-11-29T10:43:47.364Z,100928.26
2018-11-29T10:46:17.403Z,100920.41
2018-11-29T10:48:48.239Z,100932.91
2018-11-29T10:51:18.117Z,100929.89
2018-11-29T10:53:47.442Z,100926.34
2018-11-29T10:56:16.259Z,100918.00
2018-11-29T10:58:46.273Z,100912.61
2018-11-29T11:01:21.039Z,100914.56
2018-11-29T11:03:49.991Z,100925.25
2018-11-29T11:06:20.399Z,100926.67
2018-11-29T11:08:50.166Z,100933.00
2018-11-29T11:11:19.068Z,100921.05
2018-11-29T11:13:48.332Z,100921.91
2018-11-29T11:16:17.648Z,100903.25
2018-11-29T11:18:46.607Z,100897.95
2018-11-29T11:21:15.481Z,100890.50
2018-11-29T11:23:45.370Z,100896.95
2018-11-29T11:26:14.135Z,100889.09
2018-11-29T11:28:43.925Z,100882.76
2018-11-29T11:31:12.757Z,100883.53
2018-11-29T11:33:41.544Z,100867.83
2018-11-29T11:36:10.384Z,100870.06
2018-11-29T11:38:39.277Z,100874.66
2018-11-29T11:41:08.372Z,100880.38
2018-11-29T11:43:38.128Z,100875.44
2018-11-29T11:46:07.280Z,100878.91
2018-11-29T11:48:36.472Z,100877.25
2018-11-29T11:51:06.295Z,100879.05
2018-11-29T11:53:35.084Z,100877.11
2018-11-29T11:56:04.179Z,100875.64
2018-11-29T11:58:33.009Z,100873.83
2018-11-29T12:01:03.332Z,100874.32
2018-11-29T12:03:32.135Z,100865.20
2018-11-29T12:06:01.217Z,100861.03
2018-11-29T12:08:30.669Z,100847.17
2018-11-29T12:11:31.173Z,100845.36
2018-11-29T12:13:58.721Z,100833.31
2018-11-29T12:16:27.596Z,100831.78
2018-11-29T12:19:02.126Z,100835.27
2018-11-29T12:21:26.997Z,100821.27
2018-11-29T12:23:56.744Z,100833.52
2018-11-29T12:26:26.070Z,100817.09
2018-11-29T12:28:55.840Z,100821.90
2018-11-29T12:31:25.163Z,100817.44
2018-11-29T12:33:53.523Z,100813.33
2018-11-29T12:36:22.356Z,100802.89
2018-11-29T12:38:51.172Z,100813.88
2018-11-29T12:41:20.593Z,100805.39
2018-11-29T12:43:50.448Z,100807.98
2018-11-29T12:46:21.567Z,100801.34
2018-11-29T12:48:48.949Z,100797.38
2018-11-29T12:51:18.394Z,100793.05
2018-11-29T12:53:48.843Z,100782.97
2018-11-29T12:56:18.093Z,100784.28
2018-11-29T12:58:49.200Z,100772.53
2018-11-29T13:01:17.882Z,100758.67
2018-11-29T13:03:46.687Z,100755.33
2018-11-29T13:06:16.215Z,100762.44
2018-11-29T13:08:45.480Z,100750.67
2018-11-29T13:11:14.473Z,100755.77
2018-11-29T13:13:43.248Z,100760.22
2018-11-29T13:16:12.172Z,100764.67
2018-11-29T13:18:40.963Z,100743.84
2018-11-29T13:21:10.213Z,100746.97
2018-11-29T13:23:39.865Z,100751.42
2018-11-29T13:26:08.879Z,100762.78
2018-11-29T13:28:37.615Z,100760.62
2018-11-29T13:31:07.288Z,100749.02
2018-11-29T13:33:36.038Z,100748.15
2018-11-29T13:36:04.988Z,100743.63
2018-11-29T13:38:33.769Z,100743.58
2018-11-29T13:41:02.609Z,100739.06
2018-11-29T13:43:32.458Z,100733.40
2018-11-29T13:46:01.193Z,100726.79
2018-11-29T13:48:29.980Z,100737.64
2018-11-29T13:50:59.436Z,100738.13
2018-11-29T13:53:28.196Z,100742.87
2018-11-29T13:55:56.966Z,100746.84
2018-11-29T13:58:26.156Z,100744.19
2018-11-29T14:00:56.042Z,100740.02
2018-11-29T14:03:24.829Z,100741.80
2018-11-29T14:05:53.560Z,100745.06
2018-11-29T14:08:23.228Z,100735.96
2018-11-29T14:10:52.046Z,100735.55
2018-11-29T14:13:20.871Z,100738.16
2018-11-29T14:15:50.039Z,100736.14
2018-11-29T14:18:19.639Z,100737.33
2018-11-29T14:20:49.233Z,100726.48
2018-11-29T14:23:19.024Z,100754.78
2018-11-29T14:25:48.751Z,100745.67
2018-11-29T14:28:17.614Z,100751.72
2018-11-29T14:30:47.277Z,100732.25
2018-11-29T14:33:16.256Z,100727.11
2018-11-29T14:35:45.046Z,100734.82
2018-11-29T14:38:13.890Z,100743.92
2018-11-29T14:40:43.220Z,100741.77
2018-11-29T14:43:12.494Z,100740.11
2018-11-29T14:45:41.282Z,100732.18
2018-11-29T14:48:10.048Z,100734.61
2018-11-29T14:50:43.000Z,100730.66
2018-11-29T14:53:11.801Z,100730.93
2018-11-29T14:55:41.083Z,100726.10
2018-11-29T14:58:11.150Z,100727.56
2018-11-29T15:00:40.777Z,100722.28
2018-11-29T15:03:15.751Z,100731.73
2018-11-29T15:05:45.054Z,100727.11
2018-11-29T15:08:14.424Z,100720.47
2018-11-29T15:10:43.202Z,100725.69
2018-11-29T15:13:12.632Z,100721.86
2018-11-29T15:15:42.172Z,100714.42
2018-11-29T15:18:12.086Z,100714.22
2018-11-29T15:20:43.321Z,100718.66
2018-11-29T15:23:13.900Z,100701.50
2018-11-29T15:25:42.650Z,100719.50
2018-11-29T15:28:11.732Z,100702.64
2018-11-29T15:30:41.440Z,100716.61
2018-11-29T15:33:10.728Z,100711.68
2018-11-29T15:35:39.485Z,100709.04
2018-11-29T15:38:10.438Z,100695.83
2018-11-29T15:40:39.241Z,100689.92
2018-11-29T15:43:08.824Z,100694.89
2018-11-29T15:45:37.629Z,100692.95
2018-11-29T15:48:06.634Z,100674.95
2018-11-29T15:50:36.358Z,100677.55
2018-11-29T15:53:05.534Z,100688.05
2018-11-29T15:55:34.289Z,100674.91
2018-11-29T15:58:03.205Z,100684.16
2018-11-29T16:00:32.856Z,100676.38
2018-11-29T16:03:04.286Z,100674.87
2018-11-29T16:05:33.075Z,100671.30
2018-11-29T16:08:02.437Z,100671.09
2018-11-29T16:10:31.216Z,100666.72
2018-11-29T16:13:00.009Z,100659.28
2018-11-29T16:15:28.943Z,100657.95
2018-11-29T16:17:59.743Z,100664.08
2018-11-29T16:20:29.727Z,100656.02
2018-11-29T16:22:59.799Z,100664.77
2018-11-29T16:25:28.664Z,100651.22
2018-11-29T16:27:58.636Z,100651.36
2018-11-29T16:30:35.241Z,100650.45
2018-11-29T16:33:08.315Z,100657.13
2018-11-29T16:35:37.671Z,100653.79
2018-11-29T16:38:07.656Z,100651.15
2018-11-29T16:40:37.365Z,100648.23
2018-11-29T16:43:07.609Z,100632.98
2018-11-29T16:45:37.161Z,100654.69
2018-11-29T16:48:07.784Z,100637.17
2018-11-29T16:50:38.325Z,100627.94
2018-11-29T16:53:08.416Z,100624.46
2018-11-29T16:55:37.727Z,100623.77
2018-11-29T16:58:15.009Z,100619.95
2018-11-29T17:00:45.868Z,100617.66
2018-11-29T17:03:15.421Z,100616.68
2018-11-29T17:05:44.286Z,100617.17
2018-11-29T17:08:14.276Z,100605.28
2018-11-29T17:10:43.054Z,100605.34
2018-11-29T17:13:13.390Z,100608.19
2018-11-29T17:15:42.181Z,100607.22
2018-11-29T17:18:11.840Z,100609.86
2018-11-29T17:20:40.745Z,100603.28
2018-11-29T17:23:12.700Z,100589.45
2018-11-29T17:25:41.506Z,100582.36
2018-11-29T17:28:13.376Z,100582.36
2018-11-29T17:30:42.631Z,100579.72
2018-11-29T17:33:11.484Z,100576.79
2018-11-29T17:35:40.506Z,100587.21
2018-11-29T17:38:09.454Z,100575.81
2018-11-29T17:40:40.097Z,100572.19
2018-11-29T17:43:10.492Z,100560.59
2018-11-29T17:45:39.556Z,100566.91
2018-11-29T17:48:12.852Z,100572.34
2018-11-29T17:50:43.680Z,100575.33
2018-11-29T17:53:13.104Z,100568.72
2018-11-29T17:55:41.880Z,100565.10
2018-11-29T17:58:12.348Z,100561.63
2018-11-29T18:00:43.123Z,100560.80
2018-11-29T18:03:12.641Z,100550.86
2018-11-29T18:05:41.543Z,100552.19
2018-11-29T18:08:10.973Z,100540.92
2018-11-29T18:10:42.705Z,100548.85
2018-11-29T18:13:23.306Z,100540.23
2018-11-29T18:15:52.116Z,100539.38
2018-11-29T18:18:21.757Z,100538.00
2018-11-29T18:20:50.701Z,100522.84
2018-11-29T18:23:20.573Z,100521.04
2018-11-29T18:25:50.295Z,100523.39
2018-11-29T18:28:20.569Z,100515.76
2018-11-29T18:30:50.468Z,100499.66
2018-11-29T18:33:19.592Z,100510.77
2018-11-29T18:35:49.524Z,100491.80
2018-11-29T18:38:18.563Z,100488.52
2018-11-29T18:40:47.603Z,100482.26
2018-11-29T18:43:17.016Z,100482.77
2018-11-29T18:45:46.528Z,100485.31
2018-11-29T18:48:15.268Z,100474.95
2018-11-29T18:50:44.665Z,100471.81
2018-11-29T18:53:14.329Z,100467.86
2018-11-29T18:55:43.213Z,100457.00
2018-11-29T18:58:12.876Z,100455.67
2018-11-29T19:00:42.877Z,100445.45
2018-11-29T19:03:12.596Z,100445.45
2018-11-29T19:05:42.971Z,100445.77
2018-11-29T19:08:12.938Z,100455.69
2018-11-29T19:10:41.732Z,100445.66
2018-11-29T19:13:14.667Z,100447.18
2018-11-29T19:15:43.548Z,100443.56
2018-11-29T19:18:14.201Z,100444.89
2018-11-29T19:20:43.552Z,100444.25
2018-11-29T19:23:13.513Z,100439.31
2018-11-29T19:25:42.349Z,100427.08
2018-11-29T19:28:11.253Z,100443.91
2018-11-29T19:30:41.493Z,100434.33
2018-11-29T19:33:17.336Z,100431.68
2018-11-29T19:35:57.165Z,100434.03
2018-11-29T19:43:25.346Z,100409.46
2018-11-29T19:46:24.470Z,100417.88
2018-11-29T19:48:53.347Z,100404.86
2018-11-29T19:51:22.910Z,100409.80
2018-11-29T19:53:52.272Z,100403.53
2018-11-29T19:56:21.091Z,100400.10
2018-11-29T19:58:50.805Z,100393.31
2018-11-29T20:01:20.224Z,100393.31
2018-11-29T20:03:49.349Z,100393.99
2018-11-29T20:06:19.551Z,100391.34
2018-11-29T20:08:48.410Z,100386.55
2018-11-29T20:11:18.852Z,100383.58
2018-11-29T20:13:47.800Z,100391.20
2018-11-29T20:16:16.564Z,100391.05
2018-11-29T20:18:45.891Z,100386.59
2018-11-29T20:21:14.641Z,100388.45
2018-11-29T20:23:44.056Z,100373.42
2018-11-29T20:26:12.854Z,100380.02
2018-11-29T20:28:42.341Z,100383.01
2018-11-29T20:31:11.297Z,100382.52
2018-11-29T20:33:40.295Z,100380.22
2018-11-29T20:36:09.364Z,100375.73
2018-11-29T20:38:41.054Z,100368.47
2018-11-29T20:41:10.305Z,100365.98
2018-11-29T20:43:40.030Z,100362.50
2018-11-29T20:46:09.426Z,100357.75
2018-11-29T20:48:38.279Z,100360.70
2018-11-29T20:51:07.618Z,100355.10
2018-11-29T20:53:39.520Z,100348.50
2018-11-29T20:56:10.064Z,100334.11
2018-11-29T20:58:39.757Z,100341.36
2018-11-29T21:01:10.109Z,100342.50
2018-11-29T21:03:39.464Z,100347.62
2018-11-29T21:06:11.093Z,100338.04
2018-11-29T21:08:46.788Z,100345.78
2018-11-29T21:11:15.522Z,100341.33
2018-11-29T21:13:44.336Z,100351.56
2018-11-29T21:16:13.478Z,100337.36
2018-11-29T21:18:43.025Z,100331.73
2018-11-29T21:21:11.981Z,100306.78
2018-11-29T21:23:41.499Z,100340.64
2018-11-29T21:26:10.386Z,100346.61
2018-11-29T21:28:41.273Z,100348.95
2018-11-29T21:31:10.049Z,100338.08
2018-11-29T21:33:39.616Z,100340.23
2018-11-29T21:36:08.550Z,100333.28
2018-11-29T21:38:37.345Z,100339.06
2018-11-29T21:41:06.347Z,100336.11
2018-11-29T21:43:36.027Z,100329.47
2018-11-29T21:46:05.735Z,100335.66
2018-11-29T21:48:34.508Z,100335.16
2018-11-29T21:51:04.120Z,100339.63
2018-11-29T21:53:32.918Z,100341.92
2018-11-29T21:56:01.782Z,100337.80
2018-11-29T21:58:30.570Z,100346.41
2018-11-29T22:01:00.340Z,100342.79
2018-11-29T22:03:29.125Z,100345.59
2018-11-29T22:05:57.916Z,100344.30
2018-11-29T22:08:27.296Z,100345.13
2018-11-29T22:10:58.416Z,100349.92
2018-11-29T22:13:27.168Z,100340.52
2018-11-29T22:15:55.984Z,100345.98
2018-11-29T22:18:26.336Z,100349.31
2018-11-29T22:21:00.206Z,100348.81
2018-11-29T22:23:30.259Z,100355.61
2018-11-29T22:26:00.088Z,100343.55
2018-11-29T22:28:29.284Z,100356.78
2018-11-29T22:30:58.802Z,100370.34
2018-11-29T22:33:27.597Z,100372.66
2018-11-29T22:35:56.891Z,100356.94
2018-11-29T22:38:25.704Z,100347.86
2018-11-29T22:40:54.523Z,100350.02
2018-11-29T22:43:24.214Z,100340.91
2018-11-29T22:45:53.427Z,100338.61
2018-11-29T22:48:22.221Z,100336.30
2018-11-29T22:50:51.757Z,100326.70
2018-11-29T22:53:21.198Z,100326.05
2018-11-29T22:55:50.147Z,100317.14
2018-11-29T22:58:19.395Z,100323.41
2018-11-29T23:00:50.128Z,100319.63
2018-11-29T23:03:19.044Z,100310.55
2018-11-29T23:05:47.889Z,100317.98
2018-11-29T23:08:18.408Z,100308.37
2018-11-29T23:10:47.224Z,100316.84
2018-11-29T23:13:16.078Z,100301.31
2018-11-29T23:15:44.930Z,100299.98
2018-11-29T23:18:14.597Z,100291.55
2018-11-29T23:20:43.389Z,100290.56
2018-11-29T23:23:12.890Z,100301.64
2018-11-29T23:25:41.696Z,100297.67
2018-11-29T23:28:10.650Z,100286.10
2018-11-29T23:30:40.777Z,100276.19
2018-11-29T23:33:09.563Z,100281.50
2018-11-29T23:35:38.343Z,100284.64
2018-11-29T23:38:07.193Z,100286.30
2018-11-29T23:40:36.096Z,100281.66
2018-11-29T23:43:05.782Z,100282.16
2018-11-29T23:45:37.028Z,100288.95
2018-11-29T23:48:05.928Z,100284.98
2018-11-29T23:50:35.453Z,100279.34
2018-11-29T23:53:04.255Z,100286.48
2018-11-29T23:55:33.202Z,100281.19
2018-11-29T23:58:01.960Z,100276.53
